Search for airport 
image banner adimage banner adimage banner ad
image banner ad

80CN - Pine Valley Border Patrol Station

Located in Pine Valley, United States

ICAO - 80CN, IATA -

Data provided by Airmate  

General information

Coordinates: N32°42'57" W116°27'0"
Elevation is 3275 feet MSL.
 
View others Airports in California

Operational data

Special qualification required
Current time UTC:
Current local time:
Weather at : KSEE - Gillespie Field ( 50 km )
METAR: KSEE 240835Z AUTO 00000KT 10SM OVC015 18/15 A3000 RMK AO2
View NOTAMs / SUP AIP / TFR affecting this airport [VIEW]
Communications frequencies: [VIEW]

Runways:

Airport contact information

Address: Pine Valley United States

Satellite view of 80CN